sensor_id;sensor_type;location;lat;lon;timestamp;P1;durP1;ratioP1;P2;durP2;ratioP2
71127;SDS011;59249;59.736;30.568;2023-03-23T00:01:20;13.27;;;4.50;;
71127;SDS011;59249;59.736;30.568;2023-03-23T00:03:50;12.10;;;4.70;;
71127;SDS011;59249;59.736;30.568;2023-03-23T00:06:22;13.03;;;5.63;;
71127;SDS011;59249;59.736;30.568;2023-03-23T00:08:52;9.32;;;4.05;;
71127;SDS011;59249;59.736;30.568;2023-03-23T00:11:25;12.55;;;6.18;;
71127;SDS011;59249;59.736;30.568;2023-03-23T00:13:55;13.82;;;5.93;;
71127;SDS011;59249;59.736;30.568;2023-03-23T00:16:29;12.32;;;5.13;;
71127;SDS011;59249;59.736;30.568;2023-03-23T00:19:03;14.93;;;4.87;;
71127;SDS011;59249;59.736;30.568;2023-03-23T00:21:33;11.20;;;5.10;;
71127;SDS011;59249;59.736;30.568;2023-03-23T00:24:07;14.82;;;5.45;;
71127;SDS011;59249;59.736;30.568;2023-03-23T00:26:37;15.25;;;5.75;;
71127;SDS011;59249;59.736;30.568;2023-03-23T00:29:11;16.55;;;6.05;;
71127;SDS011;59249;59.736;30.568;2023-03-23T00:31:41;12.93;;;6.17;;
71127;SDS011;59249;59.736;30.568;2023-03-23T00:34:12;10.48;;;4.72;;
71127;SDS011;59249;59.736;30.568;2023-03-23T00:36:44;13.10;;;5.40;;
71127;SDS011;59249;59.736;30.568;2023-03-23T00:39:15;13.18;;;5.75;;
71127;SDS011;59249;59.736;30.568;2023-03-23T00:41:47;11.25;;;5.28;;
71127;SDS011;59249;59.736;30.568;2023-03-23T00:44:14;11.03;;;5.33;;
71127;SDS011;59249;59.736;30.568;2023-03-23T00:46:43;13.00;;;5.10;;
71127;SDS011;59249;59.736;30.568;2023-03-23T00:49:12;11.55;;;4.32;;
71127;SDS011;59249;59.736;30.568;2023-03-23T00:51:42;14.50;;;5.18;;
71127;SDS011;59249;59.736;30.568;2023-03-23T00:54:10;11.48;;;5.60;;
71127;SDS011;59249;59.736;30.568;2023-03-23T00:56:40;12.77;;;5.03;;
71127;SDS011;59249;59.736;30.568;2023-03-23T00:59:08;14.90;;;5.45;;
71127;SDS011;59249;59.736;30.568;2023-03-23T01:01:36;14.68;;;5.32;;
71127;SDS011;59249;59.736;30.568;2023-03-23T01:04:04;14.07;;;5.90;;
71127;SDS011;59249;59.736;30.568;2023-03-23T01:06:32;14.38;;;5.85;;
71127;SDS011;59249;59.736;30.568;2023-03-23T01:09:04;12.87;;;5.60;;
71127;SDS011;59249;59.736;30.568;2023-03-23T01:11:34;13.93;;;5.60;;
71127;SDS011;59249;59.736;30.568;2023-03-23T01:14:06;13.73;;;6.20;;
71127;SDS011;59249;59.736;30.568;2023-03-23T01:16:34;15.93;;;6.45;;
71127;SDS011;59249;59.736;30.568;2023-03-23T01:19:02;12.23;;;5.47;;
71127;SDS011;59249;59.736;30.568;2023-03-23T01:21:29;13.23;;;6.30;;
71127;SDS011;59249;59.736;30.568;2023-03-23T01:23:57;15.13;;;6.25;;
71127;SDS011;59249;59.736;30.568;2023-03-23T01:26:26;13.38;;;6.20;;
71127;SDS011;59249;59.736;30.568;2023-03-23T01:28:55;14.15;;;6.90;;
71127;SDS011;59249;59.736;30.568;2023-03-23T01:31:24;14.55;;;6.45;;
71127;SDS011;59249;59.736;30.568;2023-03-23T01:33:52;15.37;;;6.17;;
71127;SDS011;59249;59.736;30.568;2023-03-23T01:36:23;15.45;;;5.93;;
71127;SDS011;59249;59.736;30.568;2023-03-23T01:38:58;12.57;;;5.72;;
71127;SDS011;59249;59.736;30.568;2023-03-23T01:41:29;15.55;;;6.20;;
71127;SDS011;59249;59.736;30.568;2023-03-23T01:44:03;14.35;;;5.70;;
71127;SDS011;59249;59.736;30.568;2023-03-23T01:46:45;14.07;;;6.07;;
71127;SDS011;59249;59.736;30.568;2023-03-23T01:49:13;11.07;;;5.50;;
71127;SDS011;59249;59.736;30.568;2023-03-23T01:51:46;14.65;;;6.72;;
71127;SDS011;59249;59.736;30.568;2023-03-23T01:54:22;15.27;;;6.38;;
71127;SDS011;59249;59.736;30.568;2023-03-23T01:56:53;12.45;;;6.18;;
71127;SDS011;59249;59.736;30.568;2023-03-23T01:59:26;13.90;;;6.13;;
71127;SDS011;59249;59.736;30.568;2023-03-23T02:02:15;13.15;;;5.88;;
71127;SDS011;59249;59.736;30.568;2023-03-23T02:04:45;11.13;;;5.65;;
71127;SDS011;59249;59.736;30.568;2023-03-23T02:07:13;14.13;;;5.97;;
71127;SDS011;59249;59.736;30.568;2023-03-23T02:09:44;13.00;;;4.88;;
71127;SDS011;59249;59.736;30.568;2023-03-23T02:12:12;14.27;;;6.43;;
71127;SDS011;59249;59.736;30.568;2023-03-23T02:14:40;11.70;;;5.50;;
71127;SDS011;59249;59.736;30.568;2023-03-23T02:17:30;12.85;;;5.38;;
71127;SDS011;59249;59.736;30.568;2023-03-23T02:20:13;14.95;;;5.55;;
71127;SDS011;59249;59.736;30.568;2023-03-23T02:26:19;15.27;;;6.77;;
71127;SDS011;59249;59.736;30.568;2023-03-23T02:32:48;12.07;;;5.60;;
71127;SDS011;59249;59.736;30.568;2023-03-23T02:35:49;23.83;;;12.13;;
71127;SDS011;59249;59.736;30.568;2023-03-23T02:38:25;22.10;;;11.65;;
71127;SDS011;59249;59.736;30.568;2023-03-23T02:41:02;17.50;;;8.30;;
71127;SDS011;59249;59.736;30.568;2023-03-23T02:43:33;13.98;;;5.70;;
71127;SDS011;59249;59.736;30.568;2023-03-23T02:46:08;12.30;;;5.47;;
71127;SDS011;59249;59.736;30.568;2023-03-23T02:48:40;15.45;;;6.90;;
71127;SDS011;59249;59.736;30.568;2023-03-23T02:51:12;35.22;;;19.17;;
71127;SDS011;59249;59.736;30.568;2023-03-23T02:53:42;12.90;;;6.63;;
71127;SDS011;59249;59.736;30.568;2023-03-23T02:56:12;15.23;;;8.07;;
71127;SDS011;59249;59.736;30.568;2023-03-23T02:58:41;13.38;;;5.15;;
71127;SDS011;59249;59.736;30.568;2023-03-23T03:01:14;15.35;;;6.72;;
71127;SDS011;59249;59.736;30.568;2023-03-23T03:04:26;16.15;;;6.32;;
71127;SDS011;59249;59.736;30.568;2023-03-23T03:07:10;11.10;;;5.37;;
71127;SDS011;59249;59.736;30.568;2023-03-23T03:10:16;11.90;;;5.07;;
71127;SDS011;59249;59.736;30.568;2023-03-23T03:12:58;13.57;;;5.95;;
71127;SDS011;59249;59.736;30.568;2023-03-23T03:15:35;14.52;;;5.85;;
71127;SDS011;59249;59.736;30.568;2023-03-23T03:18:13;12.40;;;5.32;;
71127;SDS011;59249;59.736;30.568;2023-03-23T03:20:48;12.30;;;6.10;;
71127;SDS011;59249;59.736;30.568;2023-03-23T03:23:24;12.52;;;5.45;;
71127;SDS011;59249;59.736;30.568;2023-03-23T03:26:00;14.18;;;5.78;;
71127;SDS011;59249;59.736;30.568;2023-03-23T03:28:46;19.10;;;8.85;;
71127;SDS011;59249;59.736;30.568;2023-03-23T03:31:19;41.47;;;22.40;;
71127;SDS011;59249;59.736;30.568;2023-03-23T03:33:54;28.60;;;15.07;;
71127;SDS011;59249;59.736;30.568;2023-03-23T03:36:24;13.70;;;6.40;;
71127;SDS011;59249;59.736;30.568;2023-03-23T03:39:04;12.98;;;5.57;;
71127;SDS011;59249;59.736;30.568;2023-03-23T03:41:36;12.25;;;5.20;;
71127;SDS011;59249;59.736;30.568;2023-03-23T03:44:05;14.07;;;5.05;;
71127;SDS011;59249;59.736;30.568;2023-03-23T03:46:33;11.73;;;5.60;;
71127;SDS011;59249;59.736;30.568;2023-03-23T03:49:03;30.55;;;16.60;;
71127;SDS011;59249;59.736;30.568;2023-03-23T03:51:37;16.92;;;8.82;;
71127;SDS011;59249;59.736;30.568;2023-03-23T03:54:08;15.00;;;5.82;;
71127;SDS011;59249;59.736;30.568;2023-03-23T03:56:37;15.35;;;6.15;;
71127;SDS011;59249;59.736;30.568;2023-03-23T03:59:31;12.37;;;5.20;;
71127;SDS011;59249;59.736;30.568;2023-03-23T04:02:20;13.95;;;5.25;;
71127;SDS011;59249;59.736;30.568;2023-03-23T04:04:51;12.88;;;5.07;;
71127;SDS011;59249;59.736;30.568;2023-03-23T04:07:19;12.48;;;4.63;;
71127;SDS011;59249;59.736;30.568;2023-03-23T04:09:49;14.82;;;5.75;;
71127;SDS011;59249;59.736;30.568;2023-03-23T04:12:19;14.73;;;5.33;;
71127;SDS011;59249;59.736;30.568;2023-03-23T04:15:07;11.80;;;5.60;;
71127;SDS011;59249;59.736;30.568;2023-03-23T04:17:38;13.70;;;5.63;;
71127;SDS011;59249;59.736;30.568;2023-03-23T04:20:07;11.25;;;4.97;;
71127;SDS011;59249;59.736;30.568;2023-03-23T04:22:41;10.77;;;4.65;;
71127;SDS011;59249;59.736;30.568;2023-03-23T04:25:12;11.70;;;5.10;;
71127;SDS011;59249;59.736;30.568;2023-03-23T04:27:41;11.18;;;4.57;;
71127;SDS011;59249;59.736;30.568;2023-03-23T04:30:13;12.20;;;4.72;;
71127;SDS011;59249;59.736;30.568;2023-03-23T04:32:47;11.80;;;5.03;;
71127;SDS011;59249;59.736;30.568;2023-03-23T04:35:23;10.77;;;4.22;;
71127;SDS011;59249;59.736;30.568;2023-03-23T04:38:10;10.83;;;4.50;;
71127;SDS011;59249;59.736;30.568;2023-03-23T04:40:43;10.20;;;4.20;;
71127;SDS011;59249;59.736;30.568;2023-03-23T04:43:22;12.77;;;4.90;;
71127;SDS011;59249;59.736;30.568;2023-03-23T04:45:57;11.38;;;4.60;;
71127;SDS011;59249;59.736;30.568;2023-03-23T04:48:30;13.30;;;4.50;;
71127;SDS011;59249;59.736;30.568;2023-03-23T04:51:17;9.17;;;4.23;;
71127;SDS011;59249;59.736;30.568;2023-03-23T04:53:48;12.23;;;4.90;;
71127;SDS011;59249;59.736;30.568;2023-03-23T04:56:17;10.38;;;4.10;;
71127;SDS011;59249;59.736;30.568;2023-03-23T04:58:45;12.45;;;4.65;;
71127;SDS011;59249;59.736;30.568;2023-03-23T05:01:13;10.93;;;4.65;;
71127;SDS011;59249;59.736;30.568;2023-03-23T05:04:12;12.30;;;3.87;;
71127;SDS011;59249;59.736;30.568;2023-03-23T05:06:45;11.43;;;4.60;;
71127;SDS011;59249;59.736;30.568;2023-03-23T05:09:20;9.98;;;4.00;;
71127;SDS011;59249;59.736;30.568;2023-03-23T05:11:51;10.32;;;4.80;;
71127;SDS011;59249;59.736;30.568;2023-03-23T05:14:26;12.75;;;4.82;;
71127;SDS011;59249;59.736;30.568;2023-03-23T05:17:09;10.93;;;4.43;;
71127;SDS011;59249;59.736;30.568;2023-03-23T05:19:38;12.23;;;5.50;;
71127;SDS011;59249;59.736;30.568;2023-03-23T05:22:28;12.73;;;4.47;;
71127;SDS011;59249;59.736;30.568;2023-03-23T05:24:59;8.50;;;3.63;;
71127;SDS011;59249;59.736;30.568;2023-03-23T05:27:33;14.48;;;4.93;;
71127;SDS011;59249;59.736;30.568;2023-03-23T05:30:10;8.83;;;3.97;;
71127;SDS011;59249;59.736;30.568;2023-03-23T05:32:42;11.90;;;4.32;;
71127;SDS011;59249;59.736;30.568;2023-03-23T05:35:24;16.02;;;5.82;;
71127;SDS011;59249;59.736;30.568;2023-03-23T05:37:55;14.85;;;4.93;;
71127;SDS011;59249;59.736;30.568;2023-03-23T05:40:23;11.75;;;4.95;;
71127;SDS011;59249;59.736;30.568;2023-03-23T05:42:59;11.47;;;4.73;;
71127;SDS011;59249;59.736;30.568;2023-03-23T05:45:46;12.43;;;4.20;;
71127;SDS011;59249;59.736;30.568;2023-03-23T05:48:14;10.40;;;4.35;;
71127;SDS011;59249;59.736;30.568;2023-03-23T05:50:41;13.80;;;4.80;;
71127;SDS011;59249;59.736;30.568;2023-03-23T05:53:10;10.57;;;4.47;;
71127;SDS011;59249;59.736;30.568;2023-03-23T05:55:38;11.63;;;4.20;;
71127;SDS011;59249;59.736;30.568;2023-03-23T05:58:18;11.35;;;4.05;;
71127;SDS011;59249;59.736;30.568;2023-03-23T06:00:47;9.45;;;3.80;;
71127;SDS011;59249;59.736;30.568;2023-03-23T06:03:23;10.77;;;4.32;;
71127;SDS011;59249;59.736;30.568;2023-03-23T06:06:16;13.05;;;4.28;;
71127;SDS011;59249;59.736;30.568;2023-03-23T06:09:02;10.70;;;4.07;;
71127;SDS011;59249;59.736;30.568;2023-03-23T06:11:43;10.57;;;4.50;;
71127;SDS011;59249;59.736;30.568;2023-03-23T06:14:31;10.52;;;4.10;;
71127;SDS011;59249;59.736;30.568;2023-03-23T06:16:59;11.77;;;4.47;;
71127;SDS011;59249;59.736;30.568;2023-03-23T06:19:27;10.82;;;4.35;;
71127;SDS011;59249;59.736;30.568;2023-03-23T06:22:05;10.67;;;4.40;;
71127;SDS011;59249;59.736;30.568;2023-03-23T06:24:53;12.80;;;3.97;;
71127;SDS011;59249;59.736;30.568;2023-03-23T06:27:28;12.35;;;3.63;;
71127;SDS011;59249;59.736;30.568;2023-03-23T06:29:58;8.77;;;3.45;;
71127;SDS011;59249;59.736;30.568;2023-03-23T06:32:26;11.15;;;4.10;;
71127;SDS011;59249;59.736;30.568;2023-03-23T06:34:58;10.37;;;4.10;;
71127;SDS011;59249;59.736;30.568;2023-03-23T06:37:46;14.27;;;5.28;;
71127;SDS011;59249;59.736;30.568;2023-03-23T06:40:24;9.95;;;3.40;;
71127;SDS011;59249;59.736;30.568;2023-03-23T06:42:54;11.98;;;4.43;;
71127;SDS011;59249;59.736;30.568;2023-03-23T06:45:44;9.95;;;3.63;;
71127;SDS011;59249;59.736;30.568;2023-03-23T06:48:38;13.10;;;5.37;;
71127;SDS011;59249;59.736;30.568;2023-03-23T06:51:08;8.40;;;3.28;;
71127;SDS011;59249;59.736;30.568;2023-03-23T06:53:38;10.07;;;4.30;;
71127;SDS011;59249;59.736;30.568;2023-03-23T06:56:09;13.13;;;4.05;;
71127;SDS011;59249;59.736;30.568;2023-03-23T06:58:39;10.60;;;3.90;;
71127;SDS011;59249;59.736;30.568;2023-03-23T07:01:09;12.13;;;5.17;;
71127;SDS011;59249;59.736;30.568;2023-03-23T07:03:45;14.73;;;6.00;;
71127;SDS011;59249;59.736;30.568;2023-03-23T07:06:17;14.35;;;6.00;;
71127;SDS011;59249;59.736;30.568;2023-03-23T07:08:50;15.52;;;6.03;;
71127;SDS011;59249;59.736;30.568;2023-03-23T07:11:22;8.25;;;3.33;;
71127;SDS011;59249;59.736;30.568;2023-03-23T07:13:49;9.03;;;3.30;;
71127;SDS011;59249;59.736;30.568;2023-03-23T07:16:19;8.73;;;2.78;;
71127;SDS011;59249;59.736;30.568;2023-03-23T07:18:47;7.72;;;3.30;;
71127;SDS011;59249;59.736;30.568;2023-03-23T07:21:15;7.68;;;3.55;;
71127;SDS011;59249;59.736;30.568;2023-03-23T07:23:43;8.00;;;2.85;;
71127;SDS011;59249;59.736;30.568;2023-03-23T07:26:19;8.43;;;2.83;;
71127;SDS011;59249;59.736;30.568;2023-03-23T07:28:53;9.35;;;3.13;;
71127;SDS011;59249;59.736;30.568;2023-03-23T07:31:38;8.90;;;2.97;;
71127;SDS011;59249;59.736;30.568;2023-03-23T07:34:06;8.25;;;2.78;;
71127;SDS011;59249;59.736;30.568;2023-03-23T07:36:48;6.28;;;2.40;;
71127;SDS011;59249;59.736;30.568;2023-03-23T07:39:16;6.17;;;2.50;;
71127;SDS011;59249;59.736;30.568;2023-03-23T07:41:45;7.18;;;2.63;;
71127;SDS011;59249;59.736;30.568;2023-03-23T07:44:19;7.85;;;3.17;;
71127;SDS011;59249;59.736;30.568;2023-03-23T07:46:51;6.55;;;2.78;;
71127;SDS011;59249;59.736;30.568;2023-03-23T07:49:27;6.10;;;2.45;;
71127;SDS011;59249;59.736;30.568;2023-03-23T07:52:05;5.13;;;1.80;;
71127;SDS011;59249;59.736;30.568;2023-03-23T07:54:33;6.30;;;2.75;;
71127;SDS011;59249;59.736;30.568;2023-03-23T07:57:14;6.07;;;2.38;;
71127;SDS011;59249;59.736;30.568;2023-03-23T07:59:47;7.68;;;2.47;;
71127;SDS011;59249;59.736;30.568;2023-03-23T08:02:19;7.38;;;2.72;;
71127;SDS011;59249;59.736;30.568;2023-03-23T08:05:16;5.77;;;2.27;;
71127;SDS011;59249;59.736;30.568;2023-03-23T08:08:11;6.75;;;2.60;;
71127;SDS011;59249;59.736;30.568;2023-03-23T08:11:14;4.95;;;1.83;;
71127;SDS011;59249;59.736;30.568;2023-03-23T08:13:42;5.10;;;1.60;;
71127;SDS011;59249;59.736;30.568;2023-03-23T08:16:17;5.82;;;1.88;;
71127;SDS011;59249;59.736;30.568;2023-03-23T08:19:11;7.17;;;2.33;;
71127;SDS011;59249;59.736;30.568;2023-03-23T08:22:01;4.07;;;1.20;;
71127;SDS011;59249;59.736;30.568;2023-03-23T08:24:56;4.85;;;1.15;;
71127;SDS011;59249;59.736;30.568;2023-03-23T08:28:20;6.88;;;2.05;;
71127;SDS011;59249;59.736;30.568;2023-03-23T08:31:28;4.80;;;1.60;;
71127;SDS011;59249;59.736;30.568;2023-03-23T08:34:25;7.33;;;2.00;;
71127;SDS011;59249;59.736;30.568;2023-03-23T08:37:06;3.47;;;1.17;;
71127;SDS011;59249;59.736;30.568;2023-03-23T08:39:40;4.35;;;1.42;;
71127;SDS011;59249;59.736;30.568;2023-03-23T08:42:28;5.13;;;1.63;;
71127;SDS011;59249;59.736;30.568;2023-03-23T08:44:59;4.78;;;1.48;;
71127;SDS011;59249;59.736;30.568;2023-03-23T08:47:30;6.00;;;1.90;;
71127;SDS011;59249;59.736;30.568;2023-03-23T08:50:23;3.58;;;1.25;;
71127;SDS011;59249;59.736;30.568;2023-03-23T08:53:13;4.20;;;1.10;;
71127;SDS011;59249;59.736;30.568;2023-03-23T08:56:15;5.85;;;2.05;;
71127;SDS011;59249;59.736;30.568;2023-03-23T08:59:03;5.63;;;1.33;;
71127;SDS011;59249;59.736;30.568;2023-03-23T09:01:53;5.43;;;1.63;;
71127;SDS011;59249;59.736;30.568;2023-03-23T09:04:43;3.25;;;1.40;;
71127;SDS011;59249;59.736;30.568;2023-03-23T09:07:32;4.78;;;1.35;;
71127;SDS011;59249;59.736;30.568;2023-03-23T09:10:05;5.60;;;1.48;;
71127;SDS011;59249;59.736;30.568;2023-03-23T09:12:52;4.80;;;1.77;;
71127;SDS011;59249;59.736;30.568;2023-03-23T09:15:43;4.23;;;1.30;;
71127;SDS011;59249;59.736;30.568;2023-03-23T09:18:12;4.03;;;1.38;;
71127;SDS011;59249;59.736;30.568;2023-03-23T09:20:46;3.80;;;1.27;;
71127;SDS011;59249;59.736;30.568;2023-03-23T09:23:21;4.47;;;1.38;;
71127;SDS011;59249;59.736;30.568;2023-03-23T09:25:49;4.63;;;1.15;;
71127;SDS011;59249;59.736;30.568;2023-03-23T09:28:19;3.53;;;1.23;;
71127;SDS011;59249;59.736;30.568;2023-03-23T09:30:47;3.83;;;1.13;;
71127;SDS011;59249;59.736;30.568;2023-03-23T09:33:17;4.78;;;1.55;;
71127;SDS011;59249;59.736;30.568;2023-03-23T09:35:44;4.65;;;1.75;;
71127;SDS011;59249;59.736;30.568;2023-03-23T09:38:13;3.78;;;1.50;;
71127;SDS011;59249;59.736;30.568;2023-03-23T09:40:45;5.73;;;2.00;;
71127;SDS011;59249;59.736;30.568;2023-03-23T09:46:40;3.67;;;1.33;;
71127;SDS011;59249;59.736;30.568;2023-03-23T09:49:21;4.82;;;1.67;;
71127;SDS011;59249;59.736;30.568;2023-03-23T09:52:03;4.70;;;1.58;;
71127;SDS011;59249;59.736;30.568;2023-03-23T09:54:38;4.83;;;1.90;;
71127;SDS011;59249;59.736;30.568;2023-03-23T09:57:14;5.57;;;1.58;;
71127;SDS011;59249;59.736;30.568;2023-03-23T09:59:54;6.53;;;1.88;;
71127;SDS011;59249;59.736;30.568;2023-03-23T10:02:40;4.30;;;1.63;;
71127;SDS011;59249;59.736;30.568;2023-03-23T10:05:23;5.32;;;1.40;;
71127;SDS011;59249;59.736;30.568;2023-03-23T10:07:59;3.90;;;1.40;;
71127;SDS011;59249;59.736;30.568;2023-03-23T10:10:31;4.53;;;1.63;;
71127;SDS011;59249;59.736;30.568;2023-03-23T10:13:13;5.07;;;1.55;;
71127;SDS011;59249;59.736;30.568;2023-03-23T10:15:53;4.90;;;1.63;;
71127;SDS011;59249;59.736;30.568;2023-03-23T10:18:25;3.47;;;0.90;;
71127;SDS011;59249;59.736;30.568;2023-03-23T10:21:03;3.97;;;1.63;;
71127;SDS011;59249;59.736;30.568;2023-03-23T10:23:43;4.60;;;1.50;;
71127;SDS011;59249;59.736;30.568;2023-03-23T10:26:23;6.63;;;1.70;;
71127;SDS011;59249;59.736;30.568;2023-03-23T10:31:56;4.63;;;1.15;;
71127;SDS011;59249;59.736;30.568;2023-03-23T10:34:31;4.53;;;1.47;;
71127;SDS011;59249;59.736;30.568;2023-03-23T10:37:32;5.65;;;1.33;;
71127;SDS011;59249;59.736;30.568;2023-03-23T10:40:25;3.85;;;1.38;;
71127;SDS011;59249;59.736;30.568;2023-03-23T10:42:58;5.68;;;1.42;;
71127;SDS011;59249;59.736;30.568;2023-03-23T10:45:30;4.30;;;1.60;;
71127;SDS011;59249;59.736;30.568;2023-03-23T10:48:03;6.00;;;1.80;;
71127;SDS011;59249;59.736;30.568;2023-03-23T10:50:39;5.65;;;1.75;;
71127;SDS011;59249;59.736;30.568;2023-03-23T10:53:11;5.13;;;1.30;;
71127;SDS011;59249;59.736;30.568;2023-03-23T10:55:44;3.80;;;1.17;;
71127;SDS011;59249;59.736;30.568;2023-03-23T10:58:22;4.22;;;1.48;;
71127;SDS011;59249;59.736;30.568;2023-03-23T11:00:58;4.37;;;1.37;;
71127;SDS011;59249;59.736;30.568;2023-03-23T11:03:33;5.70;;;1.40;;
71127;SDS011;59249;59.736;30.568;2023-03-23T11:06:18;4.43;;;1.20;;
71127;SDS011;59249;59.736;30.568;2023-03-23T11:09:00;4.47;;;1.60;;
71127;SDS011;59249;59.736;30.568;2023-03-23T11:11:39;4.72;;;1.95;;
71127;SDS011;59249;59.736;30.568;2023-03-23T11:14:14;4.10;;;1.30;;
71127;SDS011;59249;59.736;30.568;2023-03-23T11:16:51;4.97;;;1.33;;
71127;SDS011;59249;59.736;30.568;2023-03-23T11:19:22;4.85;;;1.10;;
71127;SDS011;59249;59.736;30.568;2023-03-23T11:21:53;2.70;;;0.90;;
71127;SDS011;59249;59.736;30.568;2023-03-23T11:24:31;3.85;;;0.80;;
71127;SDS011;59249;59.736;30.568;2023-03-23T11:27:03;2.90;;;0.70;;
71127;SDS011;59249;59.736;30.568;2023-03-23T11:29:47;3.92;;;0.70;;
71127;SDS011;59249;59.736;30.568;2023-03-23T11:32:21;2.97;;;0.70;;
71127;SDS011;59249;59.736;30.568;2023-03-23T11:34:57;3.70;;;0.70;;
71127;SDS011;59249;59.736;30.568;2023-03-23T11:37:32;3.72;;;1.05;;
71127;SDS011;59249;59.736;30.568;2023-03-23T11:40:14;4.33;;;0.67;;
71127;SDS011;59249;59.736;30.568;2023-03-23T11:42:49;2.72;;;0.80;;
71127;SDS011;59249;59.736;30.568;2023-03-23T11:45:33;2.58;;;0.90;;
71127;SDS011;59249;59.736;30.568;2023-03-23T11:48:26;2.17;;;0.40;;
71127;SDS011;59249;59.736;30.568;2023-03-23T11:51:06;3.10;;;0.85;;
71127;SDS011;59249;59.736;30.568;2023-03-23T11:53:42;1.87;;;0.53;;
71127;SDS011;59249;59.736;30.568;2023-03-23T11:56:22;3.22;;;0.60;;
71127;SDS011;59249;59.736;30.568;2023-03-23T11:58:54;2.50;;;0.50;;
71127;SDS011;59249;59.736;30.568;2023-03-23T12:01:28;1.65;;;0.40;;
71127;SDS011;59249;59.736;30.568;2023-03-23T12:07:35;2.53;;;0.73;;
71127;SDS011;59249;59.736;30.568;2023-03-23T12:10:25;2.85;;;0.60;;
71127;SDS011;59249;59.736;30.568;2023-03-23T12:13:02;2.90;;;0.73;;
71127;SDS011;59249;59.736;30.568;2023-03-23T12:15:50;2.47;;;0.88;;
71127;SDS011;59249;59.736;30.568;2023-03-23T12:18:39;2.72;;;0.55;;
71127;SDS011;59249;59.736;30.568;2023-03-23T12:21:18;3.40;;;0.57;;
71127;SDS011;59249;59.736;30.568;2023-03-23T12:24:00;3.30;;;0.63;;
71127;SDS011;59249;59.736;30.568;2023-03-23T12:26:43;2.33;;;0.77;;
71127;SDS011;59249;59.736;30.568;2023-03-23T12:29:22;2.40;;;0.40;;
71127;SDS011;59249;59.736;30.568;2023-03-23T12:32:38;2.88;;;0.57;;
71127;SDS011;59249;59.736;30.568;2023-03-23T12:35:25;3.57;;;0.80;;
71127;SDS011;59249;59.736;30.568;2023-03-23T12:38:10;2.63;;;0.60;;
71127;SDS011;59249;59.736;30.568;2023-03-23T12:41:15;2.33;;;0.30;;
71127;SDS011;59249;59.736;30.568;2023-03-23T12:43:48;3.95;;;0.80;;
71127;SDS011;59249;59.736;30.568;2023-03-23T12:46:26;2.67;;;0.50;;
71127;SDS011;59249;59.736;30.568;2023-03-23T12:49:12;5.00;;;0.60;;
71127;SDS011;59249;59.736;30.568;2023-03-23T12:51:48;4.22;;;0.50;;
71127;SDS011;59249;59.736;30.568;2023-03-23T12:54:26;2.75;;;0.68;;
71127;SDS011;59249;59.736;30.568;2023-03-23T12:57:04;4.53;;;0.68;;
71127;SDS011;59249;59.736;30.568;2023-03-23T12:59:40;3.33;;;0.70;;
71127;SDS011;59249;59.736;30.568;2023-03-23T13:02:18;2.40;;;0.47;;
71127;SDS011;59249;59.736;30.568;2023-03-23T13:04:52;4.47;;;0.80;;
71127;SDS011;59249;59.736;30.568;2023-03-23T13:07:29;3.22;;;0.77;;
71127;SDS011;59249;59.736;30.568;2023-03-23T13:10:07;3.63;;;0.68;;
71127;SDS011;59249;59.736;30.568;2023-03-23T13:12:46;6.22;;;0.60;;
71127;SDS011;59249;59.736;30.568;2023-03-23T13:15:18;3.13;;;0.73;;
71127;SDS011;59249;59.736;30.568;2023-03-23T13:18:02;3.92;;;0.85;;
71127;SDS011;59249;59.736;30.568;2023-03-23T13:20:43;5.70;;;0.77;;
71127;SDS011;59249;59.736;30.568;2023-03-23T13:23:23;5.07;;;0.50;;
71127;SDS011;59249;59.736;30.568;2023-03-23T13:26:00;4.78;;;0.63;;
71127;SDS011;59249;59.736;30.568;2023-03-23T13:28:34;4.57;;;0.83;;
71127;SDS011;59249;59.736;30.568;2023-03-23T13:31:16;2.72;;;0.70;;
71127;SDS011;59249;59.736;30.568;2023-03-23T13:33:51;4.00;;;1.08;;
71127;SDS011;59249;59.736;30.568;2023-03-23T13:36:28;3.72;;;0.63;;
71127;SDS011;59249;59.736;30.568;2023-03-23T13:39:00;3.80;;;0.75;;
71127;SDS011;59249;59.736;30.568;2023-03-23T13:41:34;3.50;;;1.27;;
71127;SDS011;59249;59.736;30.568;2023-03-23T13:44:16;5.60;;;2.13;;
71127;SDS011;59249;59.736;30.568;2023-03-23T13:46:56;16.20;;;8.68;;
71127;SDS011;59249;59.736;30.568;2023-03-23T13:49:44;7.18;;;1.58;;
71127;SDS011;59249;59.736;30.568;2023-03-23T13:52:16;2.85;;;0.85;;
71127;SDS011;59249;59.736;30.568;2023-03-23T13:54:50;5.13;;;1.33;;
71127;SDS011;59249;59.736;30.568;2023-03-23T13:57:37;3.70;;;1.00;;
71127;SDS011;59249;59.736;30.568;2023-03-23T14:00:33;3.53;;;0.80;;
71127;SDS011;59249;59.736;30.568;2023-03-23T14:03:13;3.03;;;0.77;;
71127;SDS011;59249;59.736;30.568;2023-03-23T14:05:47;11.68;;;5.18;;
71127;SDS011;59249;59.736;30.568;2023-03-23T14:08:22;9.97;;;5.40;;
71127;SDS011;59249;59.736;30.568;2023-03-23T14:11:09;3.92;;;0.98;;
71127;SDS011;59249;59.736;30.568;2023-03-23T14:13:47;4.40;;;1.10;;
71127;SDS011;59249;59.736;30.568;2023-03-23T14:16:36;5.28;;;1.00;;
71127;SDS011;59249;59.736;30.568;2023-03-23T14:19:14;6.38;;;0.85;;
71127;SDS011;59249;59.736;30.568;2023-03-23T14:21:52;4.67;;;1.00;;
71127;SDS011;59249;59.736;30.568;2023-03-23T14:24:22;6.45;;;1.00;;
71127;SDS011;59249;59.736;30.568;2023-03-23T14:27:00;3.50;;;0.70;;
71127;SDS011;59249;59.736;30.568;2023-03-23T14:29:38;6.10;;;1.35;;
71127;SDS011;59249;59.736;30.568;2023-03-23T14:32:06;15.88;;;9.18;;
71127;SDS011;59249;59.736;30.568;2023-03-23T14:34:40;3.97;;;1.40;;
71127;SDS011;59249;59.736;30.568;2023-03-23T14:37:09;6.40;;;1.40;;
71127;SDS011;59249;59.736;30.568;2023-03-23T14:39:43;4.35;;;0.60;;
71127;SDS011;59249;59.736;30.568;2023-03-23T14:42:15;2.90;;;0.70;;
71127;SDS011;59249;59.736;30.568;2023-03-23T14:44:55;4.80;;;1.05;;
71127;SDS011;59249;59.736;30.568;2023-03-23T14:47:26;3.50;;;1.10;;
71127;SDS011;59249;59.736;30.568;2023-03-23T14:49:58;4.93;;;1.00;;
71127;SDS011;59249;59.736;30.568;2023-03-23T14:52:32;3.65;;;0.90;;
71127;SDS011;59249;59.736;30.568;2023-03-23T14:55:11;5.55;;;1.13;;
71127;SDS011;59249;59.736;30.568;2023-03-23T14:57:43;13.52;;;6.40;;
71127;SDS011;59249;59.736;30.568;2023-03-23T15:00:14;4.13;;;1.23;;
71127;SDS011;59249;59.736;30.568;2023-03-23T15:02:48;5.85;;;1.05;;
71127;SDS011;59249;59.736;30.568;2023-03-23T15:05:19;5.85;;;1.40;;
71127;SDS011;59249;59.736;30.568;2023-03-23T15:07:56;5.00;;;0.93;;
71127;SDS011;59249;59.736;30.568;2023-03-23T15:10:30;3.78;;;1.10;;
71127;SDS011;59249;59.736;30.568;2023-03-23T15:12:58;3.67;;;1.20;;
71127;SDS011;59249;59.736;30.568;2023-03-23T15:15:28;5.72;;;1.85;;
71127;SDS011;59249;59.736;30.568;2023-03-23T15:18:00;24.75;;;13.85;;
71127;SDS011;59249;59.736;30.568;2023-03-23T15:20:31;7.10;;;2.33;;
71127;SDS011;59249;59.736;30.568;2023-03-23T15:23:14;5.78;;;1.45;;
71127;SDS011;59249;59.736;30.568;2023-03-23T15:25:50;5.53;;;1.50;;
71127;SDS011;59249;59.736;30.568;2023-03-23T15:28:19;4.13;;;0.90;;
71127;SDS011;59249;59.736;30.568;2023-03-23T15:30:51;4.78;;;1.00;;
71127;SDS011;59249;59.736;30.568;2023-03-23T15:33:21;2.88;;;0.88;;
71127;SDS011;59249;59.736;30.568;2023-03-23T15:35:53;4.88;;;1.17;;
71127;SDS011;59249;59.736;30.568;2023-03-23T15:38:23;11.97;;;5.67;;
71127;SDS011;59249;59.736;30.568;2023-03-23T15:40:57;6.60;;;2.15;;